Aeroporto :
LOGIN :

Iscrizione | Disclaimer

   EN    FR    IT 

 










Sommario :    VFR   VFR Marginale   IFR   IFR Intensivo   IFR Molto Intensivo
Visibilità : 
Base nubi : 
>= 8 km
>= 3000ft
5 / 8 km
1000 / 3000 ft
1500m / 5 km
500 / 1000 ft
800 / 1500m
200 / 500 ft
< 800m
< 200 ft
Simboli :   Temporali  Nebbia  Neve Forte  Precipitazioni Forti  Vento > 20 kt
SIGMETs :   Varie  Temporali  Ghiacco  Turbolenza  Onda orograficha  Ceneri Vulcaniche






- Altitudine del aeroporto : 36 ft
- Codice IATA : LTQ


LFAT - Le Touquet

ULTIMO METAR :
  • 021800Z AUTO 24007KT 200V270 9999 BKN047 OVC066 09/07 Q1015 NOSIG

METARs OBSOLETI :
  • 021730Z AUTO 24009KT 9999 FEW011 OVC062 09/06 Q1015 NOSIG
  • 021700Z AUTO 24008KT 210V280 9999 FEW012 BKN049 OVC058 09/06 Q1015 NOSIG
  • 021630Z AUTO 25009KT 220V280 9999 BKN011 BKN049 OVC056 09/06 Q1015 BECMG BKN040
  • 021600Z AUTO 26009KT 220V300 9999 BKN011 OVC056 09/06 Q1015 BECMG BKN040
  • 021530Z AUTO 26009KT 230V300 9999 BKN011 BKN054 09/06 Q1015 BECMG BKN040

TAF AMD TAF LFAT
Valido dal 02 a 15 ore il 03 a 00 ore UTC


021550Z 0215/0224 27008KT 9999 BKN040
TEMPO 0215/0217 BKN010 BKN040
ATIS : +33 3 21 06 62 84



MetMap, La meteo Aeronautica in un colpo d'occhio ! - Copyright ORBIFLY Dicembre 2007 - Disclaimer

ORBIFLY MET'MAP TEAM :

Programmazione e sviluppo : Alexandra Zaïnal
Concezione : Baudouin d'Aumeries
Aiuto per la programmazione : Marc-Olivier Méhu
Supporto tecnico e logistico : Manuel Goepfert
Aiuto per la traduzione : Arnaldo La Scala

Contatto : metmap@orbifly.com




FONTI E CREDITI :

   NOAA